sensor_id;sensor_type;location;lat;lon;timestamp;pressure;altitude;pressure_sealevel;temperature;humidity
28428;BME280;15662;49.128;8.520;2023-05-27T00:01:21;101193.28;;;21.28;36.25
28428;BME280;15662;49.128;8.520;2023-05-27T00:03:49;101197.84;;;21.26;36.53
28428;BME280;15662;49.128;8.520;2023-05-27T00:06:17;101200.81;;;21.22;36.48
28428;BME280;15662;49.128;8.520;2023-05-27T00:08:44;101194.81;;;21.17;36.46
28428;BME280;15662;49.128;8.520;2023-05-27T00:11:12;101198.56;;;21.14;36.40
28428;BME280;15662;49.128;8.520;2023-05-27T00:13:40;101196.91;;;21.11;36.60
28428;BME280;15662;49.128;8.520;2023-05-27T00:16:09;101196.28;;;21.06;36.59
28428;BME280;15662;49.128;8.520;2023-05-27T00:18:37;101194.72;;;21.02;36.51
28428;BME280;15662;49.128;8.520;2023-05-27T00:21:05;101190.44;;;20.98;36.69
28428;BME280;15662;49.128;8.520;2023-05-27T00:23:33;101193.34;;;20.95;36.66
28428;BME280;15662;49.128;8.520;2023-05-27T00:26:00;101192.63;;;20.92;36.78
28428;BME280;15662;49.128;8.520;2023-05-27T00:28:28;101188.56;;;20.84;36.63
28428;BME280;15662;49.128;8.520;2023-05-27T00:30:58;101195.84;;;20.82;36.69
28428;BME280;15662;49.128;8.520;2023-05-27T00:33:27;101195.16;;;20.79;37.03
28428;BME280;15662;49.128;8.520;2023-05-27T00:35:55;101192.72;;;20.74;37.02
28428;BME280;15662;49.128;8.520;2023-05-27T00:38:23;101193.75;;;20.72;36.89
28428;BME280;15662;49.128;8.520;2023-05-27T00:40:53;101188.59;;;20.67;36.92
28428;BME280;15662;49.128;8.520;2023-05-27T00:43:21;101195.97;;;20.64;37.20
28428;BME280;15662;49.128;8.520;2023-05-27T00:45:49;101188.22;;;20.57;37.31
28428;BME280;15662;49.128;8.520;2023-05-27T00:48:17;101195.44;;;20.57;37.15
28428;BME280;15662;49.128;8.520;2023-05-27T00:50:45;101198.38;;;20.52;37.29
28428;BME280;15662;49.128;8.520;2023-05-27T00:53:13;101202.19;;;20.48;37.55
28428;BME280;15662;49.128;8.520;2023-05-27T00:55:42;101201.63;;;20.42;37.54
28428;BME280;15662;49.128;8.520;2023-05-27T00:58:10;101199.28;;;20.35;37.89
28428;BME280;15662;49.128;8.520;2023-05-27T01:00:38;101193.25;;;20.30;37.92
28428;BME280;15662;49.128;8.520;2023-05-27T01:03:06;101194.47;;;20.25;37.84
28428;BME280;15662;49.128;8.520;2023-05-27T01:05:35;101190.34;;;20.18;37.94
28428;BME280;15662;49.128;8.520;2023-05-27T01:11:07;101177.84;;;19.99;38.21
28428;BME280;15662;49.128;8.520;2023-05-27T01:13:46;101184.25;;;19.97;38.08
28428;BME280;15662;49.128;8.520;2023-05-27T01:16:18;101184.75;;;19.88;38.19
28428;BME280;15662;49.128;8.520;2023-05-27T01:18:48;101190.22;;;19.86;38.38
28428;BME280;15662;49.128;8.520;2023-05-27T01:21:16;101178.63;;;19.84;38.27
28428;BME280;15662;49.128;8.520;2023-05-27T01:23:50;101189.47;;;19.82;38.46
28428;BME280;15662;49.128;8.520;2023-05-27T01:26:18;101185.44;;;19.74;38.50
28428;BME280;15662;49.128;8.520;2023-05-27T01:28:46;101188.22;;;19.72;38.70
28428;BME280;15662;49.128;8.520;2023-05-27T01:31:51;101183.31;;;19.63;38.95
28428;BME280;15662;49.128;8.520;2023-05-27T01:34:28;101179.75;;;19.63;38.88
28428;BME280;15662;49.128;8.520;2023-05-27T01:37:07;101179.06;;;19.57;38.74
28428;BME280;15662;49.128;8.520;2023-05-27T01:39:37;101173.78;;;19.56;38.91
28428;BME280;15662;49.128;8.520;2023-05-27T01:42:05;101167.69;;;19.52;38.74
28428;BME280;15662;49.128;8.520;2023-05-27T01:44:34;101170.44;;;19.51;38.72
28428;BME280;15662;49.128;8.520;2023-05-27T01:47:03;101171.38;;;19.50;38.74
28428;BME280;15662;49.128;8.520;2023-05-27T01:49:31;101167.91;;;19.48;38.77
28428;BME280;15662;49.128;8.520;2023-05-27T01:51:59;101167.91;;;19.48;38.91
28428;BME280;15662;49.128;8.520;2023-05-27T01:54:27;101164.50;;;19.44;38.66
28428;BME280;15662;49.128;8.520;2023-05-27T01:56:55;101173.38;;;19.46;38.60
28428;BME280;15662;49.128;8.520;2023-05-27T01:59:23;101162.84;;;19.42;38.78
28428;BME280;15662;49.128;8.520;2023-05-27T02:01:51;101159.09;;;19.44;38.66
28428;BME280;15662;49.128;8.520;2023-05-27T02:04:20;101165.34;;;19.45;38.53
28428;BME280;15662;49.128;8.520;2023-05-27T02:06:48;101166.16;;;19.47;38.36
28428;BME280;15662;49.128;8.520;2023-05-27T02:09:17;101157.16;;;19.48;38.49
28428;BME280;15662;49.128;8.520;2023-05-27T02:11:47;101153.50;;;19.49;38.37
28428;BME280;15662;49.128;8.520;2023-05-27T02:14:15;101151.78;;;19.48;38.32
28428;BME280;15662;49.128;8.520;2023-05-27T02:16:42;101154.38;;;19.49;38.41
28428;BME280;15662;49.128;8.520;2023-05-27T02:19:11;101154.38;;;19.49;38.46
28428;BME280;15662;49.128;8.520;2023-05-27T02:21:38;101156.19;;;19.49;38.26
28428;BME280;15662;49.128;8.520;2023-05-27T02:24:07;101159.84;;;19.48;38.41
28428;BME280;15662;49.128;8.520;2023-05-27T02:26:35;101153.72;;;19.44;38.45
28428;BME280;15662;49.128;8.520;2023-05-27T02:29:03;101151.03;;;19.44;38.35
28428;BME280;15662;49.128;8.520;2023-05-27T02:31:31;101152.94;;;19.42;38.33
28428;BME280;15662;49.128;8.520;2023-05-27T02:33:59;101152.09;;;19.42;38.57
28428;BME280;15662;49.128;8.520;2023-05-27T02:36:27;101151.38;;;19.38;38.42
28428;BME280;15662;49.128;8.520;2023-05-27T02:38:55;101148.75;;;19.37;38.52
28428;BME280;15662;49.128;8.520;2023-05-27T02:41:23;101155.97;;;19.36;38.44
28428;BME280;15662;49.128;8.520;2023-05-27T02:43:51;101153.31;;;19.34;38.55
28428;BME280;15662;49.128;8.520;2023-05-27T02:46:19;101165.13;;;19.32;38.28
28428;BME280;15662;49.128;8.520;2023-05-27T02:48:47;101155.31;;;19.31;38.39
28428;BME280;15662;49.128;8.520;2023-05-27T02:51:15;101150.00;;;19.29;38.46
28428;BME280;15662;49.128;8.520;2023-05-27T02:53:43;101153.63;;;19.28;38.48
28428;BME280;15662;49.128;8.520;2023-05-27T02:56:11;101156.22;;;19.30;38.26
28428;BME280;15662;49.128;8.520;2023-05-27T02:58:38;101152.78;;;19.28;38.53
28428;BME280;15662;49.128;8.520;2023-05-27T03:01:06;101158.16;;;19.28;38.35
28428;BME280;15662;49.128;8.520;2023-05-27T03:03:34;101155.44;;;19.28;38.48
28428;BME280;15662;49.128;8.520;2023-05-27T03:06:03;101157.19;;;19.29;38.54
28428;BME280;15662;49.128;8.520;2023-05-27T03:08:31;101160.75;;;19.29;38.40
28428;BME280;15662;49.128;8.520;2023-05-27T03:10:59;101158.16;;;19.28;38.31
28428;BME280;15662;49.128;8.520;2023-05-27T03:13:27;101147.63;;;19.23;38.19
28428;BME280;15662;49.128;8.520;2023-05-27T03:15:55;101162.69;;;19.26;38.33
28428;BME280;15662;49.128;8.520;2023-05-27T03:18:23;101162.88;;;19.23;38.51
28428;BME280;15662;49.128;8.520;2023-05-27T03:20:51;101161.06;;;19.23;38.52
28428;BME280;15662;49.128;8.520;2023-05-27T03:23:19;101159.31;;;19.22;38.46
28428;BME280;15662;49.128;8.520;2023-05-27T03:25:48;101160.31;;;19.20;38.38
28428;BME280;15662;49.128;8.520;2023-05-27T03:28:16;101156.00;;;19.17;38.45
28428;BME280;15662;49.128;8.520;2023-05-27T03:30:44;101151.56;;;19.16;38.31
28428;BME280;15662;49.128;8.520;2023-05-27T03:33:23;101159.69;;;19.15;38.23
28428;BME280;15662;49.128;8.520;2023-05-27T03:35:51;101151.69;;;19.13;38.40
28428;BME280;15662;49.128;8.520;2023-05-27T03:38:19;101151.84;;;19.10;38.28
28428;BME280;15662;49.128;8.520;2023-05-27T03:40:47;101154.63;;;19.08;38.25
28428;BME280;15662;49.128;8.520;2023-05-27T03:43:16;101157.38;;;19.07;38.27
28428;BME280;15662;49.128;8.520;2023-05-27T03:45:43;101151.06;;;19.08;38.16
28428;BME280;15662;49.128;8.520;2023-05-27T03:48:11;101160.94;;;19.07;38.23
28428;BME280;15662;49.128;8.520;2023-05-27T03:50:39;101160.06;;;19.07;38.12
28428;BME280;15662;49.128;8.520;2023-05-27T03:53:10;101160.06;;;19.07;38.22
28428;BME280;15662;49.128;8.520;2023-05-27T03:55:37;101149.47;;;19.04;38.16
28428;BME280;15662;49.128;8.520;2023-05-27T03:58:07;101156.53;;;19.06;38.05
28428;BME280;15662;49.128;8.520;2023-05-27T04:00:34;101147.63;;;19.04;38.05
28428;BME280;15662;49.128;8.520;2023-05-27T04:03:07;101167.97;;;19.10;38.10
28428;BME280;15662;49.128;8.520;2023-05-27T04:05:35;101164.28;;;19.13;38.21
28428;BME280;15662;49.128;8.520;2023-05-27T04:08:05;101170.50;;;19.13;37.95
28428;BME280;15662;49.128;8.520;2023-05-27T04:10:33;101170.50;;;19.13;38.20
28428;BME280;15662;49.128;8.520;2023-05-27T04:13:00;101171.28;;;19.15;38.04
28428;BME280;15662;49.128;8.520;2023-05-27T04:15:28;101161.38;;;19.17;38.08
28428;BME280;15662;49.128;8.520;2023-05-27T04:17:58;101166.78;;;19.16;38.17
28428;BME280;15662;49.128;8.520;2023-05-27T04:20:37;101169.34;;;19.19;38.30
28428;BME280;15662;49.128;8.520;2023-05-27T04:23:08;101163.19;;;19.17;38.22
28428;BME280;15662;49.128;8.520;2023-05-27T04:25:36;101162.22;;;19.18;38.21
28428;BME280;15662;49.128;8.520;2023-05-27T04:28:09;101156.00;;;19.17;38.40
28428;BME280;15662;49.128;8.520;2023-05-27T04:30:41;101161.19;;;19.20;38.49
28428;BME280;15662;49.128;8.520;2023-05-27T04:33:18;101165.66;;;19.21;38.31
28428;BME280;15662;49.128;8.520;2023-05-27T04:35:47;101169.03;;;19.25;38.20
28428;BME280;15662;49.128;8.520;2023-05-27T04:38:17;101160.09;;;19.24;38.26
28428;BME280;15662;49.128;8.520;2023-05-27T04:40:54;101172.53;;;19.27;38.13
28428;BME280;15662;49.128;8.520;2023-05-27T04:43:41;101163.59;;;19.26;38.23
28428;BME280;15662;49.128;8.520;2023-05-27T04:46:13;101157.28;;;19.27;38.03
28428;BME280;15662;49.128;8.520;2023-05-27T04:48:42;101166.13;;;19.29;38.38
28428;BME280;15662;49.128;8.520;2023-05-27T04:51:12;101162.47;;;19.30;38.18
28428;BME280;15662;49.128;8.520;2023-05-27T04:53:43;101151.50;;;19.35;38.23
28428;BME280;15662;49.128;8.520;2023-05-27T04:56:11;101155.88;;;19.38;38.22
28428;BME280;15662;49.128;8.520;2023-05-27T04:58:44;101160.06;;;19.43;38.26
28428;BME280;15662;49.128;8.520;2023-05-27T05:01:15;101153.00;;;19.41;38.21
28428;BME280;15662;49.128;8.520;2023-05-27T05:04:04;101153.81;;;19.43;38.14
28428;BME280;15662;49.128;8.520;2023-05-27T05:06:49;101158.03;;;19.48;38.04
28428;BME280;15662;49.128;8.520;2023-05-27T05:09:18;101148.31;;;19.46;38.04
28428;BME280;15662;49.128;8.520;2023-05-27T05:11:50;101145.66;;;19.44;38.05
28428;BME280;15662;49.128;8.520;2023-05-27T05:14:18;101154.31;;;19.51;37.85
28428;BME280;15662;49.128;8.520;2023-05-27T05:16:46;101162.13;;;19.55;37.81
28428;BME280;15662;49.128;8.520;2023-05-27T05:19:15;101158.50;;;19.56;38.02
28428;BME280;15662;49.128;8.520;2023-05-27T05:21:42;101154.06;;;19.55;37.95
28428;BME280;15662;49.128;8.520;2023-05-27T05:24:12;101157.66;;;19.56;37.86
28428;BME280;15662;49.128;8.520;2023-05-27T05:26:41;101152.09;;;19.59;37.86
28428;BME280;15662;49.128;8.520;2023-05-27T05:29:11;101150.16;;;19.63;37.83
28428;BME280;15662;49.128;8.520;2023-05-27T05:31:40;101153.00;;;19.59;37.92
28428;BME280;15662;49.128;8.520;2023-05-27T05:34:09;101156.50;;;19.62;38.05
28428;BME280;15662;49.128;8.520;2023-05-27T05:36:37;101150.06;;;19.64;37.98
28428;BME280;15662;49.128;8.520;2023-05-27T05:39:09;101171.53;;;19.66;38.04
28428;BME280;15662;49.128;8.520;2023-05-27T05:41:42;101153.56;;;19.66;37.85
28428;BME280;15662;49.128;8.520;2023-05-27T05:44:10;101157.03;;;19.68;37.74
28428;BME280;15662;49.128;8.520;2023-05-27T05:46:38;101157.03;;;19.68;37.58
28428;BME280;15662;49.128;8.520;2023-05-27T05:49:07;101160.34;;;19.73;37.49
28428;BME280;15662;49.128;8.520;2023-05-27T05:51:42;101161.00;;;19.78;37.41
28428;BME280;15662;49.128;8.520;2023-05-27T05:54:10;101158.94;;;19.83;37.54
28428;BME280;15662;49.128;8.520;2023-05-27T05:56:43;101154.38;;;19.86;37.42
28428;BME280;15662;49.128;8.520;2023-05-27T05:59:11;101161.25;;;19.91;37.51
28428;BME280;15662;49.128;8.520;2023-05-27T06:01:40;101160.28;;;19.92;37.21
28428;BME280;15662;49.128;8.520;2023-05-27T06:04:08;101158.31;;;19.96;37.49
28428;BME280;15662;49.128;8.520;2023-05-27T06:06:40;101164.13;;;20.04;37.18
28428;BME280;15662;49.128;8.520;2023-05-27T06:09:28;101169.13;;;20.12;37.05
28428;BME280;15662;49.128;8.520;2023-05-27T06:12:00;101171.34;;;20.21;37.02
28428;BME280;15662;49.128;8.520;2023-05-27T06:14:32;101168.22;;;20.28;37.13
28428;BME280;15662;49.128;8.520;2023-05-27T06:17:00;101166.78;;;20.39;37.12
28428;BME280;15662;49.128;8.520;2023-05-27T06:19:28;101167.13;;;20.50;37.20
28428;BME280;15662;49.128;8.520;2023-05-27T06:21:56;101161.22;;;20.59;37.24
28428;BME280;15662;49.128;8.520;2023-05-27T06:24:47;101159.97;;;20.49;37.22
28428;BME280;15662;49.128;8.520;2023-05-27T06:27:47;101161.91;;;20.63;37.47
28428;BME280;15662;49.128;8.520;2023-05-27T06:30:16;101167.31;;;20.78;37.40
28428;BME280;15662;49.128;8.520;2023-05-27T06:32:46;101161.25;;;20.91;37.55
28428;BME280;15662;49.128;8.520;2023-05-27T06:35:14;101154.22;;;21.04;37.37
28428;BME280;15662;49.128;8.520;2023-05-27T06:37:42;101145.44;;;21.16;37.21
28428;BME280;15662;49.128;8.520;2023-05-27T06:40:11;101150.94;;;21.30;36.88
28428;BME280;15662;49.128;8.520;2023-05-27T06:42:39;101159.09;;;21.45;36.94
28428;BME280;15662;49.128;8.520;2023-05-27T06:45:29;101157.75;;;21.52;36.69
28428;BME280;15662;49.128;8.520;2023-05-27T06:48:20;101154.78;;;21.56;36.62
28428;BME280;15662;49.128;8.520;2023-05-27T06:50:49;101151.44;;;21.67;36.50
28428;BME280;15662;49.128;8.520;2023-05-27T06:53:17;101158.81;;;21.79;36.51
28428;BME280;15662;49.128;8.520;2023-05-27T06:55:51;101149.97;;;21.92;36.34
28428;BME280;15662;49.128;8.520;2023-05-27T06:58:48;101155.59;;;22.03;36.06
28428;BME280;15662;49.128;8.520;2023-05-27T07:01:18;101148.78;;;22.11;36.03
28428;BME280;15662;49.128;8.520;2023-05-27T07:03:50;101158.06;;;22.22;35.64
28428;BME280;15662;49.128;8.520;2023-05-27T07:06:25;101138.97;;;22.25;35.50
28428;BME280;15662;49.128;8.520;2023-05-27T07:08:55;101146.78;;;22.29;35.06
28428;BME280;15662;49.128;8.520;2023-05-27T07:11:27;101136.75;;;22.31;35.10
28428;BME280;15662;49.128;8.520;2023-05-27T07:14:00;101154.91;;;22.44;35.13
28428;BME280;15662;49.128;8.520;2023-05-27T07:16:31;101141.97;;;22.49;34.91
28428;BME280;15662;49.128;8.520;2023-05-27T07:18:59;101152.31;;;22.56;34.89
28428;BME280;15662;49.128;8.520;2023-05-27T07:21:30;101152.88;;;22.47;35.02
28428;BME280;15662;49.128;8.520;2023-05-27T07:24:00;101156.44;;;22.62;35.03
28428;BME280;15662;49.128;8.520;2023-05-27T07:26:33;101148.69;;;22.70;34.57
28428;BME280;15662;49.128;8.520;2023-05-27T07:29:03;101148.22;;;22.78;34.47
28428;BME280;15662;49.128;8.520;2023-05-27T07:31:57;101150.50;;;22.84;34.36
28428;BME280;15662;49.128;8.520;2023-05-27T07:34:30;101147.13;;;22.95;34.26
28428;BME280;15662;49.128;8.520;2023-05-27T07:36:58;101142.41;;;22.98;33.87
28428;BME280;15662;49.128;8.520;2023-05-27T07:39:26;101136.69;;;23.03;33.96
28428;BME280;15662;49.128;8.520;2023-05-27T07:41:54;101147.09;;;23.09;33.78
28428;BME280;15662;49.128;8.520;2023-05-27T07:44:23;101133.41;;;23.12;33.68
28428;BME280;15662;49.128;8.520;2023-05-27T07:46:51;101128.66;;;23.15;33.46
28428;BME280;15662;49.128;8.520;2023-05-27T07:49:19;101131.94;;;23.21;33.52
28428;BME280;15662;49.128;8.520;2023-05-27T07:52:14;101136.25;;;23.23;33.57
28428;BME280;15662;49.128;8.520;2023-05-27T07:54:42;101133.78;;;23.33;33.13
28428;BME280;15662;49.128;8.520;2023-05-27T07:57:24;101122.56;;;23.39;32.94
28428;BME280;15662;49.128;8.520;2023-05-27T07:59:53;101115.22;;;23.41;32.65
28428;BME280;15662;49.128;8.520;2023-05-27T08:02:25;101127.66;;;23.43;32.89
28428;BME280;15662;49.128;8.520;2023-05-27T08:04:53;101120.22;;;23.47;32.76
28428;BME280;15662;49.128;8.520;2023-05-27T08:07:26;101111.22;;;23.47;32.58
28428;BME280;15662;49.128;8.520;2023-05-27T08:10:16;101119.34;;;23.47;32.42
28428;BME280;15662;49.128;8.520;2023-05-27T08:13:04;101096.84;;;23.46;32.35
28428;BME280;15662;49.128;8.520;2023-05-27T08:15:56;101094.13;;;23.46;32.56
28428;BME280;15662;49.128;8.520;2023-05-27T08:18:35;101092.09;;;23.50;32.49
28428;BME280;15662;49.128;8.520;2023-05-27T08:21:08;101102.56;;;23.54;32.37
28428;BME280;15662;49.128;8.520;2023-05-27T08:23:50;101095.00;;;23.59;32.43
28428;BME280;15662;49.128;8.520;2023-05-27T08:26:30;101097.34;;;23.65;32.58
28428;BME280;15662;49.128;8.520;2023-05-27T08:29:21;101097.38;;;23.51;32.65
28428;BME280;15662;49.128;8.520;2023-05-27T08:32:05;101092.22;;;23.61;32.52
28428;BME280;15662;49.128;8.520;2023-05-27T08:34:33;101091.50;;;23.72;32.67
28428;BME280;15662;49.128;8.520;2023-05-27T08:37:02;101093.69;;;23.79;32.65
28428;BME280;15662;49.128;8.520;2023-05-27T08:39:37;101084.34;;;23.83;32.22
28428;BME280;15662;49.128;8.520;2023-05-27T08:42:27;101088.47;;;23.89;32.17
28428;BME280;15662;49.128;8.520;2023-05-27T08:44:55;101080.47;;;23.87;32.43
28428;BME280;15662;49.128;8.520;2023-05-27T08:47:23;101090.00;;;23.93;32.57
28428;BME280;15662;49.128;8.520;2023-05-27T08:49:51;101092.28;;;23.99;32.42
28428;BME280;15662;49.128;8.520;2023-05-27T08:52:19;101086.63;;;24.02;32.36
28428;BME280;15662;49.128;8.520;2023-05-27T08:54:51;101075.81;;;24.02;32.13
28428;BME280;15662;49.128;8.520;2023-05-27T08:57:20;101081.75;;;24.07;32.52
28428;BME280;15662;49.128;8.520;2023-05-27T08:59:51;101074.41;;;24.09;32.51
28428;BME280;15662;49.128;8.520;2023-05-27T09:02:21;101079.06;;;24.20;32.22
28428;BME280;15662;49.128;8.520;2023-05-27T09:04:50;101075.25;;;24.23;32.38
28428;BME280;15662;49.128;8.520;2023-05-27T09:07:21;101068.63;;;24.27;32.28
28428;BME280;15662;49.128;8.520;2023-05-27T09:09:57;101062.59;;;24.36;32.31
28428;BME280;15662;49.128;8.520;2023-05-27T09:12:27;101073.22;;;24.39;32.10
28428;BME280;15662;49.128;8.520;2023-05-27T09:14:55;101061.41;;;24.40;32.35
28428;BME280;15662;49.128;8.520;2023-05-27T09:17:24;101059.34;;;24.43;32.21
28428;BME280;15662;49.128;8.520;2023-05-27T09:19:53;101056.25;;;24.48;32.22
28428;BME280;15662;49.128;8.520;2023-05-27T09:24:54;101055.78;;;24.67;32.21
28428;BME280;15662;49.128;8.520;2023-05-27T09:27:28;101053.38;;;24.75;31.81
28428;BME280;15662;49.128;8.520;2023-05-27T09:29:57;101049.47;;;24.79;31.90
28428;BME280;15662;49.128;8.520;2023-05-27T09:32:35;101041.72;;;24.86;31.92
28428;BME280;15662;49.128;8.520;2023-05-27T09:35:05;101045.81;;;24.91;31.79
28428;BME280;15662;49.128;8.520;2023-05-27T09:37:35;101046.25;;;24.98;31.76
28428;BME280;15662;49.128;8.520;2023-05-27T09:40:10;101038.31;;;25.08;31.82
28428;BME280;15662;49.128;8.520;2023-05-27T09:42:48;101037.59;;;25.17;31.65
28428;BME280;15662;49.128;8.520;2023-05-27T09:45:19;101047.34;;;25.19;31.53
28428;BME280;15662;49.128;8.520;2023-05-27T09:47:53;101047.88;;;25.25;31.69
28428;BME280;15662;49.128;8.520;2023-05-27T09:50:22;101042.31;;;25.26;31.60
28428;BME280;15662;49.128;8.520;2023-05-27T09:52:50;101042.09;;;25.29;31.49
28428;BME280;15662;49.128;8.520;2023-05-27T09:55:21;101042.09;;;25.29;31.48
28428;BME280;15662;49.128;8.520;2023-05-27T09:57:49;101043.31;;;25.36;31.36
28428;BME280;15662;49.128;8.520;2023-05-27T10:00:18;101036.59;;;25.42;31.58
28428;BME280;15662;49.128;8.520;2023-05-27T10:02:49;101030.41;;;25.40;31.30
28428;BME280;15662;49.128;8.520;2023-05-27T10:05:17;101027.56;;;25.41;31.25
28428;BME280;15662;49.128;8.520;2023-05-27T10:07:48;101021.38;;;25.28;31.88
28428;BME280;15662;49.128;8.520;2023-05-27T10:10:19;101021.25;;;25.41;31.70
28428;BME280;15662;49.128;8.520;2023-05-27T10:12:50;101019.47;;;25.53;31.45
28428;BME280;15662;49.128;8.520;2023-05-27T10:15:29;101012.41;;;25.61;31.33
28428;BME280;15662;49.128;8.520;2023-05-27T10:18:05;101015.91;;;25.63;31.58
28428;BME280;15662;49.128;8.520;2023-05-27T10:20:42;101024.56;;;25.68;31.27
28428;BME280;15662;49.128;8.520;2023-05-27T10:23:30;101008.28;;;25.80;31.16
28428;BME280;15662;49.128;8.520;2023-05-27T10:26:07;101023.50;;;25.82;31.54
28428;BME280;15662;49.128;8.520;2023-05-27T10:28:39;101015.59;;;25.90;31.25
28428;BME280;15662;49.128;8.520;2023-05-27T10:31:17;101012.13;;;25.99;31.19
28428;BME280;15662;49.128;8.520;2023-05-27T10:33:49;101011.63;;;26.06;31.42
28428;BME280;15662;49.128;8.520;2023-05-27T10:36:28;100999.91;;;26.05;31.16
28428;BME280;15662;49.128;8.520;2023-05-27T10:39:16;101007.19;;;26.05;30.90
28428;BME280;15662;49.128;8.520;2023-05-27T10:44:28;100999.91;;;26.05;31.15
28428;BME280;15662;49.128;8.520;2023-05-27T10:47:03;100999.53;;;26.10;30.96
28428;BME280;15662;49.128;8.520;2023-05-27T10:49:37;100989.16;;;26.15;31.20
28428;BME280;15662;49.128;8.520;2023-05-27T10:52:15;100977.06;;;26.19;31.12
28428;BME280;15662;49.128;8.520;2023-05-27T10:54:45;100983.25;;;26.21;31.10
28428;BME280;15662;49.128;8.520;2023-05-27T10:57:15;100974.72;;;26.26;31.16
28428;BME280;15662;49.128;8.520;2023-05-27T10:59:54;100971.84;;;26.38;31.23
28428;BME280;15662;49.128;8.520;2023-05-27T11:02:31;100970.38;;;26.45;31.16
28428;BME280;15662;49.128;8.520;2023-05-27T11:04:59;100964.19;;;26.43;31.03
28428;BME280;15662;49.128;8.520;2023-05-27T11:07:27;100968.25;;;26.49;31.18
28428;BME280;15662;49.128;8.520;2023-05-27T11:09:55;100973.31;;;26.54;31.01
28428;BME280;15662;49.128;8.520;2023-05-27T11:12:24;100967.50;;;26.58;30.76
28428;BME280;15662;49.128;8.520;2023-05-27T11:14:54;100958.09;;;26.62;30.75
28428;BME280;15662;49.128;8.520;2023-05-27T11:17:24;100969.59;;;26.66;30.76
28428;BME280;15662;49.128;8.520;2023-05-27T11:19:54;100970.31;;;26.68;30.92
28428;BME280;15662;49.128;8.520;2023-05-27T11:22:22;100957.19;;;26.73;30.67
28428;BME280;15662;49.128;8.520;2023-05-27T11:25:01;100952.50;;;26.75;30.42
28428;BME280;15662;49.128;8.520;2023-05-27T11:27:35;100954.78;;;26.80;30.50
28428;BME280;15662;49.128;8.520;2023-05-27T11:30:11;100954.78;;;26.80;30.24
28428;BME280;15662;49.128;8.520;2023-05-27T11:32:42;100942.19;;;26.79;30.49
28428;BME280;15662;49.128;8.520;2023-05-27T11:35:17;100927.03;;;26.76;30.51
28428;BME280;15662;49.128;8.520;2023-05-27T11:37:51;100934.41;;;26.85;30.15
28428;BME280;15662;49.128;8.520;2023-05-27T11:40:19;100935.13;;;26.87;30.10
28428;BME280;15662;49.128;8.520;2023-05-27T11:42:48;100912.25;;;26.90;30.06
28428;BME280;15662;49.128;8.520;2023-05-27T11:45:20;100919.03;;;26.95;29.82
28428;BME280;15662;49.128;8.520;2023-05-27T11:47:49;100920.50;;;26.99;29.85
28428;BME280;15662;49.128;8.520;2023-05-27T11:50:31;100917.63;;;27.01;29.60
28428;BME280;15662;49.128;8.520;2023-05-27T11:53:03;100921.56;;;27.08;29.59
28428;BME280;15662;49.128;8.520;2023-05-27T11:55:33;100912.28;;;27.11;29.41
28428;BME280;15662;49.128;8.520;2023-05-27T11:58:05;100918.91;;;27.18;29.05
28428;BME280;15662;49.128;8.520;2023-05-27T12:00:36;100905.03;;;27.21;28.83
28428;BME280;15662;49.128;8.520;2023-05-27T12:03:04;100905.34;;;27.27;28.54
28428;BME280;15662;49.128;8.520;2023-05-27T12:05:32;100903.25;;;27.31;28.49
28428;BME280;15662;49.128;8.520;2023-05-27T12:08:02;100904.09;;;27.32;28.42
28428;BME280;15662;49.128;8.520;2023-05-27T12:10:31;100892.22;;;27.33;28.41
28428;BME280;15662;49.128;8.520;2023-05-27T12:13:06;100880.06;;;27.37;28.01
28428;BME280;15662;49.128;8.520;2023-05-27T12:15:34;100890.34;;;27.33;28.16
28428;BME280;15662;49.128;8.520;2023-05-27T12:18:02;100882.19;;;27.33;27.93
28428;BME280;15662;49.128;8.520;2023-05-27T12:20:30;100880.19;;;27.35;27.96
28428;BME280;15662;49.128;8.520;2023-05-27T12:22:58;100873.34;;;27.41;27.83
28428;BME280;15662;49.128;8.520;2023-05-27T12:25:27;100873.09;;;27.44;27.59
28428;BME280;15662;49.128;8.520;2023-05-27T12:27:54;100876.53;;;27.46;27.69
28428;BME280;15662;49.128;8.520;2023-05-27T12:30:22;100864.47;;;27.48;27.74
28428;BME280;15662;49.128;8.520;2023-05-27T12:32:50;100870.66;;;27.50;27.52
28428;BME280;15662;49.128;8.520;2023-05-27T12:35:18;100866.78;;;27.53;27.51
28428;BME280;15662;49.128;8.520;2023-05-27T12:37:46;100850.47;;;27.53;27.62
28428;BME280;15662;49.128;8.520;2023-05-27T12:40:14;100851.19;;;27.55;27.55
28428;BME280;15662;49.128;8.520;2023-05-27T12:42:42;100852.66;;;27.59;27.72
28428;BME280;15662;49.128;8.520;2023-05-27T12:45:11;100858.41;;;27.66;27.54
28428;BME280;15662;49.128;8.520;2023-05-27T12:47:39;100853.28;;;27.72;27.52
28428;BME280;15662;49.128;8.520;2023-05-27T12:50:07;100843.84;;;27.76;27.42
28428;BME280;15662;49.128;8.520;2023-05-27T12:52:36;100851.88;;;27.78;27.05
28428;BME280;15662;49.128;8.520;2023-05-27T12:55:04;100844.28;;;27.82;27.18
28428;BME280;15662;49.128;8.520;2023-05-27T12:57:32;100840.56;;;27.83;27.07
28428;BME280;15662;49.128;8.520;2023-05-27T13:00:00;100834.41;;;27.81;26.96
28428;BME280;15662;49.128;8.520;2023-05-27T13:02:28;100830.81;;;27.80;26.94
28428;BME280;15662;49.128;8.520;2023-05-27T13:05:03;100829.81;;;27.81;26.76
28428;BME280;15662;49.128;8.520;2023-05-27T13:08:25;100824.78;;;27.76;26.87
28428;BME280;15662;49.128;8.520;2023-05-27T13:11:46;100818.03;;;27.71;26.99
28428;BME280;15662;49.128;8.520;2023-05-27T13:15:08;100808.59;;;27.75;27.09
28428;BME280;15662;49.128;8.520;2023-05-27T13:18:30;100802.41;;;27.83;26.89
28428;BME280;15662;49.128;8.520;2023-05-27T13:21:52;100802.56;;;27.81;26.87
28428;BME280;15662;49.128;8.520;2023-05-27T13:25:13;100803.75;;;27.88;26.82